M I D A S
Marine Information and Data Acquisition System
Tripno 1151 of the Zeeleeuw from 2006-08-23 06:29:35 to 2006-08-23 13:17:47
Back to CruiseResearch ActivitiesStationsMapUnderway DataData graphs

EquipmentUnitsComments
TimeDGPSUTC
LatitudeDGPSDM.mWGS84
LongitudeDGPSDM.mWGS84
SpeedMeteo Stationm/sRelative wind speed
DirectionMeteo StationdegRelative wind direction
TemperatureMeteo Stationdeg CelciusAir temperature
PressureMeteo StationPaAtmospheric pressure
HumidityMeteo Station%Relative humidity
Missing or incorrect values are displayed as -999
Metereological data collected by the RV Zeeleeuw from 2006-08-23 06:31:14 to 2006-08-23 13:29:55
                                                                                    Next 1000 lines
Time Latitude Longitude Speed Direction Temperature Pressure Humidity
2006-08-23 06:31:24 51°13.602 2°56.096 3.8 18 13.6 101580 98
2006-08-23 06:31:30 51°13.603 2°56.094 2.7 32 13.6 101580 98
2006-08-23 06:31:34 51°13.604 2°56.092 3.7 25 13.6 101580 98
2006-08-23 06:31:40 51°13.604 2°56.089 2.8 29 13.6 101580 98
2006-08-23 06:31:44 51°13.605 2°56.087 2.6 35 13.6 101580 98
2006-08-23 06:31:50 51°13.606 2°56.084 3.8 21 13.6 101580 98
2006-08-23 06:31:55 51°13.606 2°56.081 4.4 28 13.7 101580 98
2006-08-23 06:32:00 51°13.607 2°56.078 3.8 29 13.7 101580 98
2006-08-23 06:32:05 51°13.608 2°56.075 3.2 34 13.6 101580 98
2006-08-23 06:32:10 51°13.608 2°56.071 2.9 34 13.6 101580 98
2006-08-23 06:32:15 51°13.609 2°56.067 3.3 31 13.7 101580 98
2006-08-23 06:32:20 51°13.61 2°56.063 3.6 31 13.7 101580 98
2006-08-23 06:32:24 51°13.611 2°56.059 3.6 38 13.7 101580 98
2006-08-23 06:32:30 51°13.612 2°56.052 3 37 13.7 101580 98
2006-08-23 06:32:35 51°13.613 2°56.046 3.2 35 13.7 101580 98
2006-08-23 06:32:40 51°13.614 2°56.039 2.8 45 13.7 101580 98
2006-08-23 06:32:45 51°13.616 2°56.032 2.8 37 13.7 101580 98
2006-08-23 06:32:50 51°13.618 2°56.025 4.4 34 13.7 101580 98
2006-08-23 06:32:55 51°13.62 2°56.018 3.9 36 13.7 101580 98
2006-08-23 06:33:00 51°13.621 2°56.01 4.5 33 13.7 101580 98
2006-08-23 06:33:05 51°13.623 2°56.002 4.9 35 13.7 101580 98
2006-08-23 06:33:10 51°13.626 2°55.994 3.2 32 13.7 101580 98
2006-08-23 06:33:15 51°13.628 2°55.985 2.9 34 13.7 101580 98
2006-08-23 06:33:20 51°13.631 2°55.976 2.4 36 13.7 101580 98
2006-08-23 06:33:25 51°13.634 2°55.968 3.4 32 13.7 101580 98
2006-08-23 06:33:30 51°13.637 2°55.959 3.1 51 13.7 101580 98
2006-08-23 06:33:35 51°13.64 2°55.95 2.6 28 13.7 101580 98
2006-08-23 06:33:40 51°13.644 2°55.941 2.3 58 13.7 101580 98
2006-08-23 06:33:45 51°13.647 2°55.932 2.1 26 13.7 101580 98
2006-08-23 06:33:50 51°13.651 2°55.923 1.9 36 13.7 101580 98
2006-08-23 06:33:55 51°13.655 2°55.914 3.2 42 13.7 101580 98
2006-08-23 06:34:01 51°13.66 2°55.903 2.4 56 13.7 101580 98
2006-08-23 06:34:05 51°13.663 2°55.895 2.8 20 13.8 101580 98
2006-08-23 06:34:10 51°13.667 2°55.886 3.4 56 13.8 101580 98
2006-08-23 06:34:15 51°13.67 2°55.877 3.6 39 13.8 101580 98
2006-08-23 06:34:20 51°13.674 2°55.868 3.7 40 13.8 101580 98
2006-08-23 06:34:25 51°13.677 2°55.86 3.7 27 13.8 101580 98
2006-08-23 06:34:30 51°13.68 2°55.851 2.8 37 13.8 101580 98
2006-08-23 06:34:35 51°13.683 2°55.842 2.6 42 13.8 101580 98
2006-08-23 06:34:40 51°13.686 2°55.834 2.4 55 13.8 101580 98
2006-08-23 06:34:45 51°13.688 2°55.826 2.5 21 13.8 101580 98
2006-08-23 06:34:50 51°13.691 2°55.818 2.4 37 13.8 101580 98
2006-08-23 06:34:55 51°13.693 2°55.81 3.3 28 13.8 101580 98
2006-08-23 06:35:00 51°13.694 2°55.802 3.6 43 13.8 101580 98
2006-08-23 06:35:05 51°13.696 2°55.794 4.8 43 13.8 101580 98
2006-08-23 06:35:10 51°13.697 2°55.787 3.9 40 13.8 101580 98
2006-08-23 06:35:15 51°13.698 2°55.78 4 27 13.8 101580 98
2006-08-23 06:35:20 51°13.7 2°55.773 3 39 13.8 101580 98
2006-08-23 06:35:25 51°13.701 2°55.768 2.6 26 13.8 101580 98
2006-08-23 06:35:30 51°13.702 2°55.763 3.2 44 13.8 101580 98
2006-08-23 06:35:35 51°13.703 2°55.758 3.4 37 13.8 101580 98
2006-08-23 06:35:40 51°13.703 2°55.755 2.9 55 13.8 101580 98
2006-08-23 06:35:45 51°13.704 2°55.753 3.7 44 13.8 101580 98
2006-08-23 06:35:49 51°13.704 2°55.752 2.8 50 13.8 101580 98
2006-08-23 06:35:54 51°13.704 2°55.751 3 26 13.8 101580 98
2006-08-23 06:35:59 51°13.705 2°55.751 2.6 51 13.8 101580 98
2006-08-23 06:36:05 51°13.706 2°55.752 1.9 26 13.8 101580 98
2006-08-23 06:36:10 51°13.707 2°55.752 2.3 57 13.8 101580 98
2006-08-23 06:36:15 51°13.708 2°55.753 2.7 20 13.8 101580 98
2006-08-23 06:36:20 51°13.709 2°55.753 2.4 57 13.8 101580 98
2006-08-23 06:36:25 51°13.709 2°55.753 2.8 25 13.9 101580 98
2006-08-23 06:36:29 51°13.71 2°55.753 2.7 52 13.9 101580 98
2006-08-23 06:36:34 51°13.71 2°55.753 3.3 26 13.8 101580 98
2006-08-23 06:36:39 51°13.71 2°55.752 2.6 53 13.8 101580 98
2006-08-23 06:36:44 51°13.71 2°55.751 3.1 20 13.9 101580 98
2006-08-23 06:36:50 51°13.709 2°55.75 2.8 56 13.9 101580 98
2006-08-23 06:36:54 51°13.709 2°55.749 2.6 26 13.9 101580 98
2006-08-23 06:36:59 51°13.708 2°55.747 3.5 58 13.9 101580 98
2006-08-23 06:37:04 51°13.707 2°55.746 2.4 19 13.9 101580 98
2006-08-23 06:37:09 51°13.706 2°55.745 1.7 58 13.9 101580 98
2006-08-23 06:37:14 51°13.706 2°55.744 2.5 21 13.9 101580 98
2006-08-23 06:37:20 51°13.705 2°55.743 2 58 13.9 101580 98
2006-08-23 06:37:25 51°13.705 2°55.743 1.7 27 13.9 101580 98
2006-08-23 06:37:30 51°13.705 2°55.742 1.1 56 13.9 101580 98
2006-08-23 06:37:35 51°13.706 2°55.742 2.3 27 14 101580 98
2006-08-23 06:37:39 51°13.706 2°55.742 2.9 52 14 101580 98
2006-08-23 06:37:44 51°13.707 2°55.741 2.3 27 14 101580 98
2006-08-23 06:37:49 51°13.708 2°55.741 2.3 58 14 101580 98
2006-08-23 06:37:54 51°13.709 2°55.74 1.7 270 14 101580 98
2006-08-23 06:38:00 51°13.711 2°55.739 1.8 57 14 101580 98
2006-08-23 06:38:04 51°13.712 2°55.738 1.6 249 14 101580 98
2006-08-23 06:38:09 51°13.714 2°55.737 1.4 309 14 101580 98
2006-08-23 06:38:14 51°13.716 2°55.735 1.1 21 14 101580 98
2006-08-23 06:38:20 51°13.719 2°55.733 1.1 304 14 101580 98
2006-08-23 06:38:24 51°13.721 2°55.73 1 246 14 101580 98
2006-08-23 06:38:29 51°13.725 2°55.727 1.3 61 14 101580 98
2006-08-23 06:38:34 51°13.728 2°55.723 0.8 261 14.1 101580 98
2006-08-23 06:38:39 51°13.733 2°55.718 1.3 59 14.1 101580 98
2006-08-23 06:38:44 51°13.738 2°55.714 1.4 249 14.1 101580 98
2006-08-23 06:38:49 51°13.743 2°55.709 1.2 309 14.1 101580 98
2006-08-23 06:38:54 51°13.748 2°55.703 1.4 256 14.1 101580 98
2006-08-23 06:39:00 51°13.755 2°55.697 1.3 302 14.1 101580 98
2006-08-23 06:39:05 51°13.761 2°55.691 1.4 250 14.1 101580 98
2006-08-23 06:39:09 51°13.766 2°55.686 1.5 277 14.1 101580 98
2006-08-23 06:39:14 51°13.772 2°55.68 2.6 26 14.1 101580 98
2006-08-23 06:39:19 51°13.779 2°55.674 2.3 303 14.1 101580 98
2006-08-23 06:39:24 51°13.786 2°55.668 4.9 316 14.1 101580 98
2006-08-23 06:39:30 51°13.794 2°55.662 2.3 255 14.1 101580 98
2006-08-23 06:39:34 51°13.8 2°55.657 2.9 27 14.2 101580 98
2006-08-23 06:39:40 51°13.809 2°55.65 2.2 303 14.2 101580 98
2006-08-23 06:39:44 51°13.815 2°55.645 2.3 19 14.2 101580 98
2006-08-23 06:39:50 51°13.824 2°55.639 2.5 301 14.2 101580 98
2006-08-23 06:39:54 51°13.831 2°55.634 3.3 23 14.2 101580 98
2006-08-23 06:40:00 51°13.84 2°55.627 4 301 14.2 101580 98
2006-08-23 06:40:05 51°13.848 2°55.62 1.8 20 14.2 101580 98
2006-08-23 06:40:10 51°13.856 2°55.614 2.7 332 14.2 101580 98
2006-08-23 06:40:14 51°13.863 2°55.609 2.5 319 14.2 101580 98
2006-08-23 06:40:20 51°13.873 2°55.602 3.3 307 14.2 101580 98
2006-08-23 06:40:24 51°13.879 2°55.597 3.6 316 14.2 101590 98
2006-08-23 06:40:30 51°13.889 2°55.59 2.2 331 14.2 101590 98
2006-08-23 06:40:34 51°13.896 2°55.585 2.8 27 14.2 101580 98
2006-08-23 06:40:40 51°13.906 2°55.578 2 34 14.2 101580 98
2006-08-23 06:40:45 51°13.914 2°55.572 2 327 14.2 101580 98
2006-08-23 06:40:50 51°13.923 2°55.566 1.8 309 14.2 101580 98
2006-08-23 06:40:54 51°13.93 2°55.561 2.4 322 14.2 101570 98
2006-08-23 06:41:00 51°13.94 2°55.554 2.1 303 14.2 101570 98
2006-08-23 06:41:05 51°13.949 2°55.548 2.2 321 14.2 101580 98
2006-08-23 06:41:10 51°13.957 2°55.542 1.7 280 14.2 101580 98
2006-08-23 06:41:14 51°13.964 2°55.538 2.5 25 14.2 101570 98
2006-08-23 06:41:20 51°13.975 2°55.53 3.6 303 14.2 101570 98
2006-08-23 06:41:25 51°13.984 2°55.524 3.6 25 14.3 101570 98
2006-08-23 06:41:29 51°13.991 2°55.519 3.8 306 14.3 101570 98
2006-08-23 06:41:34 51°14 2°55.512 4.5 22 14.3 101580 98
2006-08-23 06:41:40 51°14.01 2°55.505 4.9 303 14.3 101580 98
2006-08-23 06:41:45 51°14.019 2°55.498 5.3 245 14.3 101580 98
2006-08-23 06:41:50 51°14.028 2°55.492 4.1 302 14.3 101580 98
2006-08-23 06:41:54 51°14.036 2°55.487 4.1 248 14.3 101580 98
2006-08-23 06:42:00 51°14.047 2°55.479 3.6 301 14.3 101580 98
2006-08-23 06:42:04 51°14.055 2°55.473 2.1 251 14.3 101580 98
2006-08-23 06:42:08 51°14.062 2°55.468 3.1 277 14.3 101580 98
2006-08-23 06:42:14 51°14.074 2°55.459 3.2 321 14.3 101580 98
2006-08-23 06:42:19 51°14.084 2°55.452 3.4 308 14.3 101580 98
2006-08-23 06:42:24 51°14.094 2°55.444 3.7 21 14.3 101580 98
2006-08-23 06:42:29 51°14.103 2°55.437 3.4 302 14.3 101580 98
2006-08-23 06:42:35 51°14.116 2°55.428 2.6 20 14.3 101580 97
2006-08-23 06:42:39 51°14.124 2°55.422 3 307 14.3 101580 97
2006-08-23 06:42:44 51°14.134 2°55.414 4.9 321 14.3 101580 97
2006-08-23 06:42:49 51°14.144 2°55.406 3.5 308 14.3 101580 97
2006-08-23 06:42:54 51°14.155 2°55.399 3.3 27 14.3 101580 97
2006-08-23 06:43:00 51°14.167 2°55.389 2.5 309 14.3 101580 97
2006-08-23 06:43:04 51°14.175 2°55.382 3.1 25 14.3 101580 97
2006-08-23 06:43:10 51°14.187 2°55.37 2.8 279 14.3 101580 97
2006-08-23 06:43:14 51°14.195 2°55.362 3.6 28 14.3 101580 97
2006-08-23 06:43:19 51°14.205 2°55.351 3.3 308 14.3 101580 97
2006-08-23 06:43:25 51°14.217 2°55.338 3.1 317 14.3 101570 97
2006-08-23 06:43:30 51°14.227 2°55.326 4.6 317 14.3 101570 97
2006-08-23 06:43:35 51°14.236 2°55.313 3.7 27 14.3 101580 97
2006-08-23 06:43:40 51°14.246 2°55.3 6 310 14.3 101580 97
2006-08-23 06:43:44 51°14.253 2°55.288 4.5 28 14.3 101570 97
2006-08-23 06:43:50 51°14.264 2°55.271 5.6 307 14.3 101570 97
2006-08-23 06:43:55 51°14.272 2°55.255 6.3 27 14.3 101570 97
2006-08-23 06:44:00 51°14.28 2°55.239 6.3 309 14.3 101570 97
2006-08-23 06:44:05 51°14.289 2°55.223 6.2 26 14.3 101570 97
2006-08-23 06:44:10 51°14.296 2°55.206 6.5 315 14.3 101570 97
2006-08-23 06:44:13 51°14.301 2°55.196 6.2 25 14.3 101560 97
2006-08-23 06:44:20 51°14.312 2°55.172 5.8 303 14.3 101560 97
2006-08-23 06:44:24 51°14.318 2°55.159 5.6 27 14.3 101570 97
2006-08-23 06:44:29 51°14.327 2°55.142 6.6 302 14.3 101570 97
2006-08-23 06:44:35 51°14.337 2°55.122 6.1 22 14.3 101570 97
2006-08-23 06:44:40 51°14.345 2°55.106 5.6 301 14.3 101570 97
2006-08-23 06:44:44 51°14.352 2°55.093 5.7 26 14.3 101570 97
2006-08-23 06:44:50 51°14.364 2°55.074 6.3 303 14.3 101570 97
2006-08-23 06:44:54 51°14.372 2°55.061 6.7 25 14.3 101570 97
2006-08-23 06:45:00 51°14.385 2°55.043 6.2 237 14.3 101570 97
2006-08-23 06:45:05 51°14.396 2°55.029 6.3 24 14.3 101570 97
2006-08-23 06:45:09 51°14.405 2°55.017 6.3 282 14.3 101570 97
2006-08-23 06:45:14 51°14.417 2°55.004 5.9 26 14.4 101570 97
2006-08-23 06:45:20 51°14.432 2°54.988 6.4 306 14.4 101570 97
2006-08-23 06:45:24 51°14.442 2°54.976 6.7 21 14.3 101570 97
2006-08-23 06:45:30 51°14.456 2°54.958 6.7 310 14.3 101570 97
2006-08-23 06:45:34 51°14.465 2°54.945 6.3 22 14.4 101570 97
2006-08-23 06:45:39 51°14.477 2°54.929 7.2 237 14.4 101570 97
2006-08-23 06:45:44 51°14.489 2°54.912 7.4 24 14.4 101570 97
2006-08-23 06:45:50 51°14.504 2°54.893 7.4 308 14.4 101570 97
2006-08-23 06:45:54 51°14.514 2°54.88 6.6 25 14.4 101570 97
2006-08-23 06:45:59 51°14.526 2°54.864 6.7 304 14.4 101570 97
2006-08-23 06:46:05 51°14.541 2°54.845 7.2 26 14.4 101570 97
2006-08-23 06:46:10 51°14.554 2°54.828 7.1 284 14.4 101570 97
2006-08-23 06:46:15 51°14.567 2°54.812 6.5 25 14.4 101570 97
2006-08-23 06:46:20 51°14.58 2°54.796 6.4 305 14.4 101570 97
2006-08-23 06:46:24 51°14.59 2°54.783 6.5 27 14.4 101570 97
2006-08-23 06:46:30 51°14.606 2°54.764 6.7 240 14.4 101570 97
2006-08-23 06:46:34 51°14.616 2°54.751 6.9 22 14.3 101560 97
2006-08-23 06:46:40 51°14.632 2°54.732 7 308 14.3 101560 97
2006-08-23 06:46:44 51°14.642 2°54.719 5.8 27 14.3 101570 97
2006-08-23 06:46:50 51°14.658 2°54.7 6.3 238 14.3 101570 97
2006-08-23 06:46:54 51°14.668 2°54.687 6.9 27 14.4 101570 97
2006-08-23 06:47:00 51°14.684 2°54.668 6.3 305 14.4 101570 97
2006-08-23 06:47:04 51°14.694 2°54.655 6.1 27 14.4 101570 97
2006-08-23 06:47:09 51°14.708 2°54.64 6.2 285 14.4 101570 97
2006-08-23 06:47:14 51°14.721 2°54.624 6.2 23 14.4 101570 97
2006-08-23 06:47:20 51°14.737 2°54.606 6 303 14.4 101570 97
2006-08-23 06:47:24 51°14.748 2°54.593 6.1 25 14.4 101570 97
2006-08-23 06:47:29 51°14.761 2°54.578 6 304 14.4 101570 97
2006-08-23 06:47:34 51°14.774 2°54.562 6.2 22 14.4 101560 97
2006-08-23 06:47:40 51°14.79 2°54.543 6.4 238 14.4 101560 97
2006-08-23 06:47:45 51°14.803 2°54.528 7.6 22 14.4 101570 97
2006-08-23 06:47:50 51°14.816 2°54.512 7.7 307 14.4 101570 97
2006-08-23 06:47:54 51°14.827 2°54.499 6.7 22 14.4 101570 97
2006-08-23 06:48:00 51°14.842 2°54.48 6.4 239 14.4 101570 97
2006-08-23 06:48:05 51°14.856 2°54.465 6.6 29 14.4 101570 97
2006-08-23 06:48:10 51°14.869 2°54.45 7.7 284 14.4 101570 97
2006-08-23 06:48:14 51°14.879 2°54.438 6.5 26 14.4 101570 97
2006-08-23 06:48:19 51°14.893 2°54.423 6.6 303 14.4 101570 97
2006-08-23 06:48:24 51°14.906 2°54.408 7.1 27 14.5 101570 97
2006-08-23 06:48:30 51°14.922 2°54.39 7 307 14.5 101570 97
2006-08-23 06:48:34 51°14.932 2°54.378 7.9 29 14.5 101560 97
2006-08-23 06:48:40 51°14.948 2°54.36 8 306 14.5 101560 97
2006-08-23 06:48:44 51°14.959 2°54.348 7.6 28 14.5 101570 97
2006-08-23 06:48:50 51°14.974 2°54.33 7.1 309 14.5 101570 97
2006-08-23 06:48:54 51°14.985 2°54.318 8.2 27 14.5 101570 97
2006-08-23 06:48:59 51°14.997 2°54.302 7 302 14.5 101570 97
2006-08-23 06:49:04 51°15.01 2°54.287 7.8 25 14.5 101570 97
2006-08-23 06:49:10 51°15.026 2°54.269 7.3 238 14.5 101570 97
2006-08-23 06:49:14 51°15.036 2°54.257 7.1 21 14.5 101560 97
2006-08-23 06:49:19 51°15.049 2°54.242 7.1 309 14.5 101560 97
2006-08-23 06:49:25 51°15.065 2°54.224 7.1 25 14.5 101570 97
2006-08-23 06:49:29 51°15.075 2°54.212 6.3 305 14.5 101570 97
2006-08-23 06:49:34 51°15.089 2°54.197 6.9 23 14.5 101580 97
2006-08-23 06:49:40 51°15.104 2°54.179 7.3 304 14.5 101580 97
2006-08-23 06:49:45 51°15.117 2°54.164 7.1 25 14.5 101570 97
2006-08-23 06:49:50 51°15.13 2°54.149 7 303 14.5 101570 97
2006-08-23 06:49:54 51°15.141 2°54.136 7 23 14.5 101570 97
2006-08-23 06:50:00 51°15.156 2°54.118 7.4 301 14.5 101570 97
2006-08-23 06:50:05 51°15.169 2°54.102 7.5 21 14.5 101570 97
2006-08-23 06:50:10 51°15.183 2°54.087 7.1 280 14.5 101570 97
2006-08-23 06:50:14 51°15.193 2°54.074 6.6 22 14.5 101570 97
2006-08-23 06:50:19 51°15.206 2°54.059 6.9 308 14.5 101570 97
2006-08-23 06:50:24 51°15.22 2°54.043 6.7 28 14.5 101570 97
2006-08-23 06:50:29 51°15.233 2°54.029 7.1 303 14.5 101570 97
2006-08-23 06:50:34 51°15.246 2°54.014 7.2 22 14.5 101570 97
2006-08-23 06:50:40 51°15.263 2°53.996 7 307 14.5 101570 97
2006-08-23 06:50:43 51°15.271 2°53.988 6.7 21 14.5 101570 97
2006-08-23 06:50:50 51°15.29 2°53.967 7.6 307 14.5 101570 97
2006-08-23 06:50:54 51°15.301 2°53.955 7.6 22 14.5 101560 97
2006-08-23 06:51:00 51°15.317 2°53.937 6.9 302 14.5 101560 97
2006-08-23 06:51:04 51°15.328 2°53.925 6.6 20 14.6 101560 97
2006-08-23 06:51:10 51°15.344 2°53.907 8 239 14.6 101560 97
2006-08-23 06:51:15 51°15.357 2°53.892 7.1 20 14.6 101570 97
2006-08-23 06:51:20 51°15.37 2°53.877 7.3 309 14.6 101570 97
2006-08-23 06:51:24 51°15.381 2°53.865 7.2 21 14.6 101560 97
2006-08-23 06:51:29 51°15.395 2°53.85 6.4 302 14.6 101560 97
2006-08-23 06:51:34 51°15.408 2°53.835 6.2 28 14.6 101570 97
2006-08-23 06:51:39 51°15.422 2°53.82 7.4 302 14.6 101570 97
2006-08-23 06:51:44 51°15.435 2°53.805 6.9 27 14.6 101560 97
2006-08-23 06:51:50 51°15.452 2°53.787 7.7 307 14.6 101560 97
2006-08-23 06:51:54 51°15.462 2°53.775 8 24 14.6 101560 97
2006-08-23 06:52:00 51°15.479 2°53.758 7.4 240 14.6 101560 97
2006-08-23 06:52:05 51°15.492 2°53.743 6.3 25 14.6 101560 97
2006-08-23 06:52:09 51°15.503 2°53.731 7.1 283 14.6 101560 97
2006-08-23 06:52:14 51°15.517 2°53.717 8 22 14.6 101570 97
2006-08-23 06:52:20 51°15.533 2°53.7 7 306 14.6 101570 97
2006-08-23 06:52:24 51°15.545 2°53.689 7 28 14.6 101560 97
2006-08-23 06:52:30 51°15.562 2°53.673 6.5 241 14.6 101560 97
2006-08-23 06:52:34 51°15.573 2°53.663 6.6 27 14.6 101570 97
2006-08-23 06:52:39 51°15.587 2°53.65 5.9 301 14.6 101570 97
2006-08-23 06:52:44 51°15.601 2°53.636 7.2 24 14.6 101560 97
2006-08-23 06:52:50 51°15.618 2°53.619 6.4 308 14.6 101560 97
2006-08-23 06:52:54 51°15.629 2°53.608 7.2 21 14.6 101570 97
2006-08-23 06:52:59 51°15.642 2°53.594 7.2 304 14.6 101570 97
2006-08-23 06:53:04 51°15.656 2°53.579 6.4 20 14.6 101560 97
2006-08-23 06:53:10 51°15.673 2°53.561 6 280 14.6 101560 97
2006-08-23 06:53:15 51°15.686 2°53.546 7 19 14.7 101560 97
2006-08-23 06:53:20 51°15.7 2°53.531 6.9 304 14.7 101560 97
2006-08-23 06:53:25 51°15.713 2°53.516 7.5 25 14.6 101560 97
2006-08-23 06:53:30 51°15.727 2°53.501 6.8 239 14.6 101560 97
2006-08-23 06:53:35 51°15.741 2°53.487 7.5 28 14.7 101560 97
2006-08-23 06:53:40 51°15.755 2°53.472 6.9 307 14.7 101560 97
2006-08-23 06:53:44 51°15.766 2°53.461 6.6 20 14.7 101560 97
2006-08-23 06:53:50 51°15.782 2°53.444 6.7 307 14.7 101560 97
2006-08-23 06:53:54 51°15.793 2°53.432 7.3 27 14.7 101570 97
2006-08-23 06:54:00 51°15.81 2°53.415 6.3 236 14.7 101570 97
2006-08-23 06:54:03 51°15.818 2°53.406 6.9 22 14.7 101560 97
2006-08-23 06:54:10 51°15.838 2°53.386 6.6 286 14.7 101560 97
2006-08-23 06:54:14 51°15.849 2°53.375 7.2 22 14.7 101550 97
2006-08-23 06:54:19 51°15.863 2°53.361 6.9 33 14.7 101550 97
2006-08-23 06:54:25 51°15.88 2°53.345 6.1 25 14.8 101560 97
2006-08-23 06:54:30 51°15.895 2°53.332 6.7 305 14.8 101560 97
2006-08-23 06:54:34 51°15.906 2°53.322 6.8 25 14.8 101560 97
2006-08-23 06:54:40 51°15.923 2°53.307 6.1 304 14.8 101560 97
2006-08-23 06:54:45 51°15.938 2°53.295 6.6 24 14.8 101570 97
2006-08-23 06:54:50 51°15.952 2°53.282 6.9 303 14.8 101570 97
2006-08-23 06:54:54 51°15.964 2°53.272 6.5 19 14.8 101560 97
2006-08-23 06:54:59 51°15.978 2°53.259 6.8 302 14.8 101560 97
2006-08-23 06:55:04 51°15.993 2°53.247 6.9 21 14.8 101560 97
2006-08-23 06:55:10 51°16.01 2°53.231 6.3 244 14.8 101560 97
2006-08-23 06:55:15 51°16.024 2°53.219 6.7 25 14.9 101560 97
2006-08-23 06:55:19 51°16.036 2°53.208 7.4 302 14.9 101560 97
2006-08-23 06:55:24 51°16.05 2°53.196 8.1 245 14.9 101560 97
2006-08-23 06:55:30 51°16.068 2°53.181 7.4 308 14.9 101560 97
2006-08-23 06:55:35 51°16.082 2°53.168 7.3 23 14.9 101570 97
2006-08-23 06:55:39 51°16.094 2°53.157 7 302 14.9 101570 97
2006-08-23 06:55:44 51°16.108 2°53.144 7.1 20 14.9 101560 97
2006-08-23 06:55:49 51°16.122 2°53.13 7.5 302 14.9 101560 97
2006-08-23 06:55:54 51°16.136 2°53.115 8.7 27 14.9 101560 97
2006-08-23 06:55:58 51°16.147 2°53.103 8 301 14.9 101560 97
2006-08-23 06:56:04 51°16.163 2°53.086 8.6 27 14.9 101570 97
2006-08-23 06:56:08 51°16.175 2°53.075 6.9 301 14.9 101570 97
2006-08-23 06:56:14 51°16.191 2°53.058 7.5 241 15 101560 98
2006-08-23 06:56:19 51°16.205 2°53.044 8.2 303 15 101560 98
2006-08-23 06:56:24 51°16.219 2°53.03 8.2 25 15 101560 98
2006-08-23 06:56:30 51°16.236 2°53.012 7.5 308 15 101560 98
2006-08-23 06:56:33 51°16.244 2°53.004 7.5 20 15 101560 97
2006-08-23 06:56:40 51°16.263 2°52.982 8 304 15 101560 97
2006-08-23 06:56:44 51°16.274 2°52.97 7.9 21 15 101560 97
2006-08-23 06:56:49 51°16.287 2°52.955 7.9 307 15 101560 97
2006-08-23 06:56:54 51°16.301 2°52.939 8 22 15 101550 97
2006-08-23 06:56:59 51°16.314 2°52.924 8.7 303 15 101550 97
2006-08-23 06:57:04 51°16.328 2°52.908 7.3 23 15 101560 97
2006-08-23 06:57:09 51°16.341 2°52.894 8 303 15 101560 97
2006-08-23 06:57:14 51°16.356 2°52.88 8.3 22 15 101560 97
2006-08-23 06:57:20 51°16.373 2°52.865 8 304 15 101560 97
2006-08-23 06:57:24 51°16.384 2°52.855 6.6 26 15.1 101560 97
2006-08-23 06:57:30 51°16.401 2°52.84 7.2 307 15.1 101560 97
2006-08-23 06:57:34 51°16.413 2°52.83 7.4 26 15.1 101560 97
2006-08-23 06:57:40 51°16.43 2°52.815 7.2 303 15.1 101560 97
2006-08-23 06:57:44 51°16.442 2°52.806 7.2 19 15.1 101560 97
2006-08-23 06:57:50 51°16.459 2°52.792 7.1 307 15.1 101560 97
2006-08-23 06:57:54 51°16.47 2°52.781 6.6 23 15.1 101560 97
2006-08-23 06:58:00 51°16.488 2°52.766 6.4 310 15.1 101560 97
2006-08-23 06:58:04 51°16.499 2°52.756 6.1 25 15.1 101560 97
2006-08-23 06:58:09 51°16.513 2°52.743 6.5 284 15.1 101560 97
2006-08-23 06:58:15 51°16.531 2°52.728 7 25 15.1 101550 97
2006-08-23 06:58:18 51°16.539 2°52.721 7.2 308 15.1 101550 97
2006-08-23 06:58:24 51°16.557 2°52.707 6.5 22 15.1 101560 97
2006-08-23 06:58:29 51°16.571 2°52.695 6.9 304 15.1 101560 97
2006-08-23 06:58:35 51°16.589 2°52.681 6.9 22 15.1 101560 97
2006-08-23 06:58:40 51°16.603 2°52.669 6.3 309 15.1 101560 97
2006-08-23 06:58:44 51°16.614 2°52.659 6.3 26 15.1 101560 97
2006-08-23 06:58:50 51°16.632 2°52.646 6.4 307 15.1 101560 97
2006-08-23 06:58:54 51°16.643 2°52.636 6.1 20 15.1 101560 97
2006-08-23 06:59:00 51°16.66 2°52.621 6.3 302 15.1 101560 97
2006-08-23 06:59:04 51°16.671 2°52.611 5.9 242 15.1 101560 97
2006-08-23 06:59:10 51°16.687 2°52.594 6.7 308 15.1 101560 97
2006-08-23 06:59:14 51°16.698 2°52.583 6 19 15.1 101560 97
2006-08-23 06:59:19 51°16.711 2°52.569 6.2 309 15.1 101560 97
2006-08-23 06:59:24 51°16.724 2°52.554 6.6 245 15.1 101560 97
2006-08-23 06:59:30 51°16.74 2°52.537 6.5 303 15.1 101560 97
2006-08-23 06:59:34 51°16.75 2°52.525 7.3 22 15.1 101560 97
2006-08-23 06:59:38 51°16.761 2°52.513 6.9 308 15.1 101560 97
2006-08-23 06:59:44 51°16.776 2°52.497 7.2 243 15.1 101560 97
2006-08-23 06:59:50 51°16.793 2°52.481 7.3 307 15.1 101560 97
2006-08-23 06:59:54 51°16.803 2°52.47 7.7 25 15.2 101560 97
2006-08-23 07:00:00 51°16.82 2°52.456 6.6 309 15.2 101560 97
2006-08-23 07:00:04 51°16.831 2°52.446 7.5 26 15.2 101550 97
2006-08-23 07:00:10 51°16.848 2°52.431 7.5 282 15.2 101550 97
2006-08-23 07:00:14 51°16.859 2°52.422 7.2 244 15.2 101550 97
2006-08-23 07:00:20 51°16.875 2°52.408 7.6 302 15.2 101550 97
2006-08-23 07:00:24 51°16.886 2°52.398 7.5 24 15.2 101550 97
2006-08-23 07:00:29 51°16.9 2°52.386 6.7 303 15.2 101550 97
2006-08-23 07:00:34 51°16.914 2°52.374 7.9 26 15.2 101560 98
2006-08-23 07:00:40 51°16.93 2°52.358 8.2 302 15.2 101560 98
2006-08-23 07:00:44 51°16.941 2°52.348 7.4 28 15.2 101560 98
2006-08-23 07:00:50 51°16.957 2°52.332 8.1 303 15.2 101560 98
2006-08-23 07:00:54 51°16.968 2°52.322 7.6 243 15.3 101550 98
2006-08-23 07:01:00 51°16.984 2°52.306 6.9 303 15.3 101550 98
2006-08-23 07:01:04 51°16.995 2°52.296 7.3 27 15.3 101550 98
2006-08-23 07:01:09 51°17.008 2°52.283 7.6 305 15.3 101550 98
2006-08-23 07:01:14 51°17.022 2°52.271 7.4 26 15.3 101560 98
2006-08-23 07:01:20 51°17.037 2°52.257 8 305 15.3 101560 98
2006-08-23 07:01:23 51°17.044 2°52.251 7.5 19 15.3 101550 98
2006-08-23 07:01:30 51°17.06 2°52.236 6.7 302 15.3 101550 98
2006-08-23 07:01:34 51°17.068 2°52.229 6.2 249 15.3 101550 98
2006-08-23 07:01:38 51°17.076 2°52.223 6 303 15.3 101550 98
2006-08-23 07:01:44 51°17.087 2°52.213 6.4 253 15.3 101560 98
2006-08-23 07:01:50 51°17.097 2°52.204 6.3 303 15.3 101560 98
2006-08-23 07:01:54 51°17.103 2°52.198 7.6 255 15.3 101550 98
2006-08-23 07:01:58 51°17.11 2°52.192 7 302 15.3 101550 98
2006-08-23 07:02:04 51°17.118 2°52.184 7.8 257 15.3 101560 98
2006-08-23 07:02:10 51°17.126 2°52.175 6.6 278 15.3 101560 98
2006-08-23 07:02:14 51°17.132 2°52.17 6.9 254 15.4 101560 98
2006-08-23 07:02:19 51°17.138 2°52.163 6.2 306 15.4 101560 98
2006-08-23 07:02:24 51°17.144 2°52.156 7.5 254 15.4 101560 98
2006-08-23 07:02:30 51°17.15 2°52.147 6.4 307 15.4 101560 98
2006-08-23 07:02:34 51°17.155 2°52.142 6.5 254 15.4 101560 98
2006-08-23 07:02:40 51°17.162 2°52.133 6.7 303 15.4 101560 98
2006-08-23 07:02:43 51°17.166 2°52.129 5.1 259 15.4 101560 98
2006-08-23 07:02:49 51°17.175 2°52.122 5.7 302 15.4 101560 98
2006-08-23 07:02:54 51°17.181 2°52.116 4.9 261 15.4 101560 98
2006-08-23 07:03:00 51°17.19 2°52.111 3.8 308 15.4 101560 98
2006-08-23 07:03:04 51°17.196 2°52.109 3.8 265 15.4 101560 98
2006-08-23 07:03:10 51°17.204 2°52.107 4.6 59 15.4 101560 98
2006-08-23 07:03:14 51°17.21 2°52.106 4.1 22 15.4 101560 98
2006-08-23 07:03:20 51°17.219 2°52.106 3.6 60 15.4 101560 98
2006-08-23 07:03:25 51°17.226 2°52.107 3.4 28 15.4 101570 98
2006-08-23 07:03:30 51°17.233 2°52.108 3.8 56 15.4 101570 98
2006-08-23 07:03:34 51°17.239 2°52.11 3.8 270 15.4 101560 98
2006-08-23 07:03:40 51°17.247 2°52.111 3.8 59 15.4 101560 98
2006-08-23 07:03:44 51°17.253 2°52.113 3.9 24 15.5 101570 98
2006-08-23 07:03:50 51°17.26 2°52.114 3.2 57 15.5 101570 98
2006-08-23 07:03:55 51°17.265 2°52.116 3.4 26 15.5 101570 98
2006-08-23 07:03:59 51°17.27 2°52.117 3.8 54 15.5 101570 98
2006-08-23 07:04:04 51°17.275 2°52.118 3.8 25 15.5 101560 98
2006-08-23 07:04:09 51°17.28 2°52.119 4.4 78 15.5 101560 98
2006-08-23 07:04:14 51°17.284 2°52.12 3.8 27 15.5 101560 98
2006-08-23 07:04:20 51°17.289 2°52.121 4 59 15.5 101560 98
2006-08-23 07:04:24 51°17.292 2°52.122 4.6 28 15.5 101570 98
2006-08-23 07:04:30 51°17.297 2°52.123 4.2 57 15.5 101570 98
2006-08-23 07:04:34 51°17.3 2°52.124 4.3 19 15.5 101570 98
2006-08-23 07:04:40 51°17.304 2°52.125 4.2 52 15.5 101570 98
2006-08-23 07:04:44 51°17.307 2°52.125 5.5 25 15.5 101570 98
2006-08-23 07:04:50 51°17.311 2°52.126 5.2 52 15.5 101570 98
2006-08-23 07:04:54 51°17.313 2°52.127 6.3 21 15.5 101560 98
2006-08-23 07:05:00 51°17.315 2°52.127 6 56 15.5 101560 98
2006-08-23 07:05:04 51°17.316 2°52.127 5 28 15.5 101570 97
2006-08-23 07:05:10 51°17.318 2°52.128 5.2 78 15.5 101570 97
2006-08-23 07:05:14 51°17.319 2°52.128 4.7 28 15.5 101570 97
2006-08-23 07:05:19 51°17.319 2°52.128 5.1 51 15.5 101570 97
2006-08-23 07:05:24 51°17.32 2°52.128 3.6 25 15.5 101570 97
2006-08-23 07:05:29 51°17.32 2°52.128 3.2 57 15.5 101570 97
2006-08-23 07:05:34 51°17.32 2°52.129 4.6 25 15.5 101570 98
2006-08-23 07:05:40 51°17.32 2°52.13 4.7 56 15.5 101570 98
2006-08-23 07:05:44 51°17.32 2°52.13 5.1 24 15.6 101560 98
2006-08-23 07:05:50 51°17.32 2°52.13 5.2 52 15.6 101560 98
2006-08-23 07:05:54 51°17.32 2°52.131 5.9 21 15.6 101570 98
2006-08-23 07:06:00 51°17.32 2°52.132 5.1 51 15.6 101570 98
2006-08-23 07:06:04 51°17.32 2°52.132 5.4 26 15.6 101560 98
2006-08-23 07:06:10 51°17.32 2°52.133 5.7 58 15.6 101560 98
2006-08-23 07:06:14 51°17.319 2°52.133 6.1 20 15.6 101560 97
2006-08-23 07:06:18 51°17.319 2°52.134 5.5 53 15.6 101560 97
2006-08-23 07:06:23 51°17.319 2°52.134 5.2 21 15.6 101560 97
2006-08-23 07:06:30 51°17.319 2°52.136 6.5 57 15.6 101560 97
2006-08-23 07:06:34 51°17.318 2°52.137 7 24 15.6 101560 97
2006-08-23 07:06:39 51°17.318 2°52.138 6.5 59 15.6 101560 97
2006-08-23 07:06:44 51°17.318 2°52.14 6.3 22 15.7 101560 98
2006-08-23 07:06:50 51°17.318 2°52.142 6 53 15.7 101560 98
2006-08-23 07:06:54 51°17.318 2°52.144 6.3 22 15.7 101560 98
2006-08-23 07:07:00 51°17.318 2°52.148 5.2 44 15.7 101560 98
2006-08-23 07:07:04 51°17.319 2°52.151 6.5 27 15.6 101550 97
2006-08-23 07:07:10 51°17.319 2°52.157 5.9 80 15.6 101550 97
2006-08-23 07:07:14 51°17.32 2°52.161 5.9 20 15.6 101550 97
2006-08-23 07:07:20 51°17.322 2°52.168 5.1 56 15.6 101550 97
2006-08-23 07:07:23 51°17.323 2°52.171 5 28 15.6 101560 97
2006-08-23 07:07:29 51°17.325 2°52.179 3.6 52 15.6 101560 97
2006-08-23 07:07:34 51°17.327 2°52.185 3.4 23 15.6 101560 97
2006-08-23 07:07:40 51°17.331 2°52.194 2.6 57 15.6 101560 97
2006-08-23 07:07:45 51°17.334 2°52.2 2.1 25 15.6 101560 97
2006-08-23 07:07:49 51°17.336 2°52.206 2.9 57 15.6 101560 97
2006-08-23 07:07:54 51°17.339 2°52.214 3.7 25 15.6 101560 97
2006-08-23 07:08:00 51°17.344 2°52.223 3.1 59 15.6 101560 97
2006-08-23 07:08:05 51°17.347 2°52.231 3.3 43 15.6 101550 97
2006-08-23 07:08:10 51°17.351 2°52.239 3.3 44 15.6 101550 97
2006-08-23 07:08:14 51°17.353 2°52.245 2.9 24 15.6 101550 97
2006-08-23 07:08:20 51°17.358 2°52.256 3 53 15.6 101550 97
2006-08-23 07:08:24 51°17.361 2°52.262 3.5 23 15.6 101560 97
2006-08-23 07:08:30 51°17.365 2°52.272 3.6 44 15.6 101560 97
2006-08-23 07:08:34 51°17.368 2°52.279 3.5 27 15.6 101560 97
2006-08-23 07:08:40 51°17.372 2°52.288 3.3 53 15.6 101560 97
2006-08-23 07:08:44 51°17.375 2°52.294 3.3 42 15.6 101560 97
2006-08-23 07:08:50 51°17.378 2°52.303 3.2 52 15.6 101560 97
2006-08-23 07:08:54 51°17.38 2°52.309 3 26 15.6 101560 97
2006-08-23 07:08:59 51°17.383 2°52.316 3.2 52 15.6 101560 97
2006-08-23 07:09:04 51°17.386 2°52.323 3.6 44 15.7 101550 97
2006-08-23 07:09:09 51°17.389 2°52.329 3 80 15.7 101550 97
2006-08-23 07:09:14 51°17.391 2°52.336 3.3 25 15.7 101560 97
2006-08-23 07:09:18 51°17.393 2°52.34 3.7 53 15.7 101560 97
2006-08-23 07:09:24 51°17.395 2°52.347 4 43 15.6 101560 97
2006-08-23 07:09:30 51°17.397 2°52.354 3.8 36 15.6 101560 97
2006-08-23 07:09:35 51°17.399 2°52.359 3.4 41 15.7 101560 97
2006-08-23 07:09:40 51°17.4 2°52.363 5.1 41 15.7 101560 97
2006-08-23 07:09:44 51°17.401 2°52.367 4.9 45 15.7 101560 97
2006-08-23 07:09:49 51°17.402 2°52.372 4.8 44 15.7 101560 97
2006-08-23 07:09:54 51°17.403 2°52.376 4.9 40 15.7 101560 97
2006-08-23 07:10:00 51°17.404 2°52.38 5.7 41 15.7 101560 97
2006-08-23 07:10:04 51°17.405 2°52.383 5.6 44 15.7 101560 98
2006-08-23 07:10:10 51°17.405 2°52.387 4.8 42 15.7 101560 98
2006-08-23 07:10:14 51°17.404 2°52.389 5.9 41 15.7 101550 97
2006-08-23 07:10:20 51°17.404 2°52.391 5.3 44 15.7 101550 97
2006-08-23 07:10:24 51°17.404 2°52.391 6.4 42 15.7 101560 97
2006-08-23 07:10:30 51°17.403 2°52.391 5.4 44 15.7 101560 97
2006-08-23 07:10:34 51°17.402 2°52.392 5.3 43 15.7 101550 97
2006-08-23 07:10:40 51°17.401 2°52.392 6.8 39 15.7 101550 97
2006-08-23 07:10:44 51°17.401 2°52.393 5.3 42 15.7 101550 97
2006-08-23 07:10:50 51°17.4 2°52.393 5.6 41 15.7 101550 97
2006-08-23 07:10:54 51°17.399 2°52.394 6.4 35 15.7 101550 97
2006-08-23 07:11:00 51°17.398 2°52.394 5.8 38 15.7 101550 97
2006-08-23 07:11:04 51°17.398 2°52.395 6 40 15.7 101550 97
2006-08-23 07:11:10 51°17.397 2°52.395 6.3 37 15.7 101550 97
2006-08-23 07:11:14 51°17.397 2°52.395 6.2 38 15.7 101550 97
2006-08-23 07:11:20 51°17.396 2°52.396 6.8 38 15.7 101550 97
2006-08-23 07:11:24 51°17.395 2°52.397 6.5 37 15.7 101550 97
2006-08-23 07:11:30 51°17.394 2°52.398 6.1 37 15.7 101550 97
2006-08-23 07:11:34 51°17.394 2°52.4 6.4 37 15.7 101550 97
2006-08-23 07:11:39 51°17.393 2°52.402 6.1 36 15.7 101550 97
2006-08-23 07:11:44 51°17.393 2°52.405 5.5 36 15.6 101550 97
2006-08-23 07:11:50 51°17.393 2°52.41 5.6 33 15.6 101550 97
2006-08-23 07:11:54 51°17.393 2°52.415 6 37 15.7 101550 97
2006-08-23 07:12:00 51°17.394 2°52.422 4.7 38 15.7 101550 97
2006-08-23 07:12:04 51°17.395 2°52.428 4.7 37 15.7 101550 97
2006-08-23 07:12:10 51°17.397 2°52.437 4.8 35 15.7 101550 97
2006-08-23 07:12:13 51°17.398 2°52.442 4.3 39 15.7 101550 97
2006-08-23 07:12:20 51°17.401 2°52.455 4.2 38 15.7 101550 97
2006-08-23 07:12:23 51°17.403 2°52.46 3.7 40 15.7 101550 97
2006-08-23 07:12:30 51°17.408 2°52.473 4 39 15.7 101550 97
2006-08-23 07:12:34 51°17.41 2°52.482 3.8 29 15.7 101550 97
2006-08-23 07:12:40 51°17.415 2°52.494 3.3 31 15.7 101550 97
2006-08-23 07:12:44 51°17.418 2°52.502 3.2 36 15.7 101550 97
2006-08-23 07:12:50 51°17.423 2°52.515 3.7 42 15.7 101550 97
2006-08-23 07:12:54 51°17.426 2°52.524 4.2 44 15.6 101550 97
2006-08-23 07:13:00 51°17.432 2°52.537 3.5 39 15.6 101550 97
2006-08-23 07:13:04 51°17.436 2°52.545 3.2 41 15.7 101560 97
2006-08-23 07:13:10 51°17.442 2°52.558 3.3 37 15.7 101560 97
2006-08-23 07:13:14 51°17.446 2°52.566 3.2 42 15.6 101550 97
2006-08-23 07:13:19 51°17.452 2°52.576 3.4 39 15.6 101550 97
2006-08-23 07:13:24 51°17.457 2°52.586 2.6 23 15.6 101550 97
2006-08-23 07:13:30 51°17.464 2°52.597 3.2 42 15.6 101550 97
2006-08-23 07:13:34 51°17.47 2°52.604 2.9 27 15.7 101550 97
2006-08-23 07:13:40 51°17.478 2°52.613 2.5 52 15.7 101550 97
2006-08-23 07:13:44 51°17.484 2°52.619 2.3 27 15.7 101550 97
2006-08-23 07:13:50 51°17.492 2°52.627 2.3 57 15.7 101550 97
2006-08-23 07:13:53 51°17.497 2°52.631 2 21 15.7 101550 97
2006-08-23 07:14:00 51°17.506 2°52.639 2.2 55 15.7 101550 97
2006-08-23 07:14:04 51°17.512 2°52.644 1.9 19 15.6 101560 97
2006-08-23 07:14:10 51°17.519 2°52.651 1.6 55 15.6 101560 97
2006-08-23 07:14:15 51°17.525 2°52.657 1.2 20 15.6 101550 97
2006-08-23 07:14:20 51°17.531 2°52.662 2.6 51 15.6 101550 97
2006-08-23 07:14:24 51°17.535 2°52.667 2.6 23 15.7 101550 97
2006-08-23 07:14:29 51°17.541 2°52.672 1.9 57 15.7 101550 97
2006-08-23 07:14:34 51°17.546 2°52.678 3 26 15.7 101550 97
2006-08-23 07:14:40 51°17.552 2°52.684 3.3 59 15.7 101550 97
2006-08-23 07:14:44 51°17.556 2°52.689 4.2 26 15.7 101560 97
2006-08-23 07:14:49 51°17.56 2°52.694 3.2 58 15.7 101560 97
2006-08-23 07:14:54 51°17.564 2°52.7 3.8 25 15.7 101560 97
2006-08-23 07:15:00 51°17.569 2°52.705 4.1 57 15.7 101560 97
2006-08-23 07:15:05 51°17.573 2°52.71 4.1 27 15.7 101550 97
2006-08-23 07:15:09 51°17.575 2°52.714 4.9 81 15.7 101550 97
2006-08-23 07:15:15 51°17.579 2°52.72 5.5 19 15.7 101550 97
2006-08-23 07:15:20 51°17.582 2°52.724 5.1 58 15.7 101550 97
2006-08-23 07:15:24 51°17.585 2°52.728 4.4 21 15.7 101550 97
2006-08-23 07:15:29 51°17.587 2°52.732 4.8 50 15.7 101550 97
2006-08-23 07:15:34 51°17.59 2°52.737 4.6 21 15.7 101550 97
2006-08-23 07:15:40 51°17.592 2°52.741 4.6 58 15.7 101550 97
2006-08-23 07:15:44 51°17.594 2°52.744 4.5 29 15.7 101550 97
2006-08-23 07:15:50 51°17.597 2°52.748 5 57 15.7 101550 97
2006-08-23 07:15:54 51°17.598 2°52.751 4.5 28 15.7 101540 97
2006-08-23 07:16:00 51°17.6 2°52.754 5.2 57 15.7 101540 97
2006-08-23 07:16:04 51°17.601 2°52.757 3.9 20 15.7 101550 97
2006-08-23 07:16:10 51°17.603 2°52.76 4.7 55 15.7 101550 97
2006-08-23 07:16:14 51°17.604 2°52.762 4.1 28 15.7 101550 97
2006-08-23 07:16:20 51°17.606 2°52.764 4.8 56 15.7 101550 97
2006-08-23 07:16:23 51°17.606 2°52.765 4.6 21 15.7 101550 97
2006-08-23 07:16:29 51°17.606 2°52.766 3 52 15.7 101550 97
2006-08-23 07:16:34 51°17.606 2°52.766 3.9 23 15.7 101550 97
2006-08-23 07:16:40 51°17.606 2°52.767 3.4 53 15.7 101550 97
2006-08-23 07:16:44 51°17.606 2°52.767 2.7 28 15.7 101560 97
2006-08-23 07:16:50 51°17.606 2°52.767 3.5 56 15.7 101560 97
2006-08-23 07:16:54 51°17.606 2°52.767 3.5 24 15.8 101560 97
2006-08-23 07:17:00 51°17.606 2°52.767 3.3 53 15.8 101560 97
2006-08-23 07:17:04 51°17.606 2°52.767 3.1 21 15.8 101550 98
2006-08-23 07:17:10 51°17.606 2°52.767 3.3 76 15.8 101550 98
2006-08-23 07:17:14 51°17.606 2°52.767 4.7 22 16 101550 98
2006-08-23 07:17:20 51°17.606 2°52.767 4.8 53 16 101550 98
2006-08-23 07:17:24 51°17.606 2°52.767 6.2 22 16 101560 98
2006-08-23 07:17:30 51°17.606 2°52.767 5.9 56 16 101560 98
2006-08-23 07:17:34 51°17.606 2°52.767 4.8 21 16 101550 98
2006-08-23 07:17:40 51°17.607 2°52.767 5.1 53 16 101550 98
2006-08-23 07:17:44 51°17.608 2°52.768 5.5 29 16 101560 97
2006-08-23 07:17:50 51°17.61 2°52.77 3.7 57 16 101560 97
2006-08-23 07:17:54 51°17.613 2°52.773 3.1 27 15.9 101560 97
2006-08-23 07:17:59 51°17.616 2°52.777 2.2 52 15.9 101560 97
2006-08-23 07:18:04 51°17.62 2°52.782 1.9 23 15.9 101560 97
2006-08-23 07:18:10 51°17.625 2°52.791 4.3 54 15.9 101560 97
2006-08-23 07:18:14 51°17.628 2°52.797 4.1 20 16.1 101550 97
2006-08-23 07:18:20 51°17.632 2°52.809 3.8 40 16.1 101550 97
2006-08-23 07:18:23 51°17.634 2°52.815 3.6 41 16.2 101550 98
2006-08-23 07:18:30 51°17.64 2°52.832 2.9 35 16.2 101550 98
2006-08-23 07:18:34 51°17.643 2°52.843 3.3 35 16.1 101550 97
2006-08-23 07:18:40 51°17.649 2°52.859 2.6 27 16.1 101550 97
2006-08-23 07:18:44 51°17.652 2°52.871 2.3 29 16.1 101550 97
2006-08-23 07:18:49 51°17.658 2°52.887 2.1 35 16.1 101550 97
2006-08-23 07:18:54 51°17.663 2°52.903 2.4 35 16.1 101550 97
2006-08-23 07:19:00 51°17.67 2°52.922 2.3 32 16.1 101550 97
2006-08-23 07:19:05 51°17.676 2°52.938 2.6 24 16.1 101560 97
2006-08-23 07:19:10 51°17.683 2°52.954 2.1 29 16.1 101560 97
2006-08-23 07:19:14 51°17.688 2°52.967 2.2 34 16.1 101550 97
2006-08-23 07:19:20 51°17.697 2°52.986 1.9 43 16.1 101550 97
2006-08-23 07:19:24 51°17.703 2°52.998 1.5 35 16.1 101560 97
2006-08-23 07:19:30 51°17.712 2°53.017 1.5 27 16.1 101560 97
2006-08-23 07:19:34 51°17.718 2°53.03 1.6 34 16.1 101550 97
2006-08-23 07:19:40 51°17.728 2°53.049 1.6 35 16.1 101550 97
2006-08-23 07:19:44 51°17.733 2°53.063 2.3 37 16.1 101560 97
2006-08-23 07:19:50 51°17.743 2°53.082 1.4 28 16.1 101560 97
2006-08-23 07:19:54 51°17.749 2°53.095 1.6 33 16.1 101560 97
2006-08-23 07:19:59 51°17.757 2°53.111 1.1 41 16.1 101560 97
2006-08-23 07:20:04 51°17.765 2°53.127 1.4 20 16.1 101560 97
2006-08-23 07:20:10 51°17.774 2°53.146 1.3 27 16.1 101560 97
2006-08-23 07:20:15 51°17.782 2°53.162 1.3 43 16.1 101560 97
2006-08-23 07:20:19 51°17.789 2°53.175 1.4 32 16.1 101560 97
2006-08-23 07:20:24 51°17.797 2°53.191 1.6 32 16.1 101560 97
2006-08-23 07:20:29 51°17.805 2°53.207 1.5 25 16.1 101560 97
2006-08-23 07:20:34 51°17.813 2°53.223 1.6 34 16.1 101560 97
2006-08-23 07:20:39 51°17.821 2°53.238 1.9 31 16.1 101560 97
2006-08-23 07:20:44 51°17.829 2°53.254 1.4 35 16.1 101560 97
2006-08-23 07:20:50 51°17.839 2°53.273 1.2 28 16.1 101560 97
2006-08-23 07:20:54 51°17.845 2°53.286 1.1 37 16.1 101560 97
2006-08-23 07:21:00 51°17.855 2°53.305 1.9 41 16.1 101560 97
2006-08-23 07:21:04 51°17.862 2°53.317 1.5 38 16.1 101560 97
2006-08-23 07:21:09 51°17.869 2°53.332 2.3 41 16.1 101560 97
2006-08-23 07:21:14 51°17.876 2°53.345 2.5 43 16.1 101560 97
2006-08-23 07:21:20 51°17.883 2°53.36 2.2 53 16.1 101560 97
2006-08-23 07:21:23 51°17.886 2°53.367 2.5 29 16.1 101560 97
2006-08-23 07:21:30 51°17.894 2°53.382 2.6 53 16.1 101560 97
2006-08-23 07:21:33 51°17.897 2°53.389 3.2 21 16.2 101560 97
2006-08-23 07:21:40 51°17.903 2°53.402 2.7 53 16.2 101560 97
2006-08-23 07:21:45 51°17.907 2°53.411 3.6 29 16.1 101560 96
2006-08-23 07:21:50 51°17.91 2°53.42 4.2 53 16.1 101560 96
2006-08-23 07:21:54 51°17.913 2°53.427 3.5 29 16.1 101550 96
2006-08-23 07:21:59 51°17.917 2°53.435 3.4 54 16.1 101550 96
2006-08-23 07:22:05 51°17.921 2°53.445 3.4 44 16.1 101550 96
2006-08-23 07:22:10 51°17.924 2°53.453 4.4 51 16.1 101550 96
2006-08-23 07:22:14 51°17.927 2°53.458 3.6 29 16.1 101560 96
2006-08-23 07:22:20 51°17.931 2°53.466 4.1 54 16.1 101560 96
2006-08-23 07:22:24 51°17.934 2°53.471 3.6 24 16.1 101550 96
2006-08-23 07:22:30 51°17.938 2°53.478 4.1 52 16.1 101550 96
2006-08-23 07:22:34 51°17.94 2°53.482 3.2 25 16.1 101560 96
2006-08-23 07:22:39 51°17.943 2°53.487 2.9 52 16.1 101560 96
2006-08-23 07:22:44 51°17.947 2°53.491 2.9 29 16.1 101560 96
2006-08-23 07:22:50 51°17.95 2°53.495 3.7 51 16.1 101560 96
2006-08-23 07:22:54 51°17.953 2°53.497 4.7 21 16.1 101560 96
2006-08-23 07:23:00 51°17.957 2°53.501 4.3 58 16.1 101560 96
2006-08-23 07:23:04 51°17.959 2°53.503 5.2 29 16.1 101560 96
2006-08-23 07:23:10 51°17.963 2°53.507 4.8 76 16.1 101560 96
2006-08-23 07:23:13 51°17.966 2°53.508 4.5 27 16.1 101560 96
2006-08-23 07:23:20 51°17.97 2°53.512 4.8 52 16.1 101560 96
2006-08-23 07:23:24 51°17.973 2°53.514 4.7 28 16.1 101560 96
2006-08-23 07:23:30 51°17.977 2°53.518 5.6 57 16.1 101560 96
2006-08-23 07:23:33 51°17.979 2°53.519 4.6 27 16.1 101560 96
2006-08-23 07:23:40 51°17.984 2°53.523 4 59 16.1 101560 96
2006-08-23 07:23:44 51°17.986 2°53.526 3.2 22 16.1 101560 96
2006-08-23 07:23:50 51°17.99 2°53.53 3.4 53 16.1 101560 96
2006-08-23 07:23:54 51°17.992 2°53.533 3.1 24 16.2 101560 96
2006-08-23 07:24:00 51°17.994 2°53.537 5.8 56 16.2 101560 96
2006-08-23 07:24:04 51°17.996 2°53.54 6.5 26 16.2 101560 96
2006-08-23 07:24:10 51°17.998 2°53.544 5.5 57 16.2 101560 96
2006-08-23 07:24:14 51°17.999 2°53.547 6.9 24 16.2 101550 97
2006-08-23 07:24:20 51°18 2°53.551 6.8 55 16.2 101550 97
2006-08-23 07:24:23 51°18.001 2°53.553 5.8 20 16.2 101550 96
2006-08-23 07:24:30 51°18.002 2°53.557 5.3 59 16.2 101550 96
2006-08-23 07:24:34 51°18.003 2°53.56 6.3 21 16.2 101550 96
2006-08-23 07:24:40 51°18.004 2°53.564 5.3 59 16.2 101550 96
2006-08-23 07:24:44 51°18.005 2°53.566 6.7 26 16.1 101550 96
2006-08-23 07:24:50 51°18.006 2°53.57 5.8 57 16.1 101550 96
2006-08-23 07:24:54 51°18.006 2°53.572 6 26 16.1 101550 96
2006-08-23 07:24:59 51°18.007 2°53.575 5.1 58 16.1 101550 96
2006-08-23 07:25:04 51°18.007 2°53.578 5.7 20 16.1 101550 96
2006-08-23 07:25:10 51°18.007 2°53.581 6.2 75 16.1 101550 96
2006-08-23 07:25:14 51°18.008 2°53.583 6.2 21 16.1 101550 96
2006-08-23 07:25:19 51°18.008 2°53.585 6.5 57 16.1 101550 96
2006-08-23 07:25:24 51°18.007 2°53.586 6 28 16.1 101550 96
2006-08-23 07:25:30 51°18.006 2°53.586 6.4 44 16.1 101550 96
2006-08-23 07:25:34 51°18.006 2°53.587 6.5 25 16.1 101550 96
2006-08-23 07:25:40 51°18.005 2°53.588 6.6 43 16.1 101550 96
2006-08-23 07:25:44 51°18.004 2°53.588 5.8 42 16.1 101550 96
2006-08-23 07:25:49 51°18.003 2°53.589 6.6 45 16.1 101550 96
2006-08-23 07:25:54 51°18.003 2°53.59 6.9 40 16.1 101550 96
2006-08-23 07:26:00 51°18.002 2°53.59 6.8 38 16.1 101550 96
2006-08-23 07:26:05 51°18.001 2°53.591 6.1 38 16.1 101550 96
2006-08-23 07:26:09 51°18 2°53.591 6.6 38 16.1 101550 96
2006-08-23 07:26:14 51°18 2°53.592 7.1 38 16.1 101540 96
2006-08-23 07:26:20 51°17.999 2°53.592 5.7 36 16.1 101540 96
2006-08-23 07:26:25 51°17.997 2°53.593 7 37 16.1 101550 96
2006-08-23 07:26:29 51°17.997 2°53.593 6.5 35 16.1 101550 96
2006-08-23 07:26:34 51°17.996 2°53.594 6.1 33 16.1 101540 96
2006-08-23 07:26:40 51°17.994 2°53.596 6.1 36 16.1 101540 96
2006-08-23 07:26:44 51°17.993 2°53.597 6.7 26 16.1 101540 96
2006-08-23 07:26:50 51°17.991 2°53.6 6.8 33 16.1 101540 96
2006-08-23 07:26:54 51°17.991 2°53.602 6.5 34 16.1 101540 96
2006-08-23 07:27:00 51°17.988 2°53.605 3.3 34 16.1 101540 96
2006-08-23 07:27:04 51°17.987 2°53.607 6.6 30 16.1 101540 96
2006-08-23 07:27:10 51°17.985 2°53.61 5.5 33 16.1 101540 96
2006-08-23 07:27:15 51°17.983 2°53.614 6.2 26 16.1 101550 96
2006-08-23 07:27:19 51°17.981 2°53.618 6.7 22 16.1 101550 96
2006-08-23 07:27:24 51°17.978 2°53.623 7 22 16.1 101550 96
2006-08-23 07:27:30 51°17.974 2°53.629 7.6 18 16.1 101550 96
2006-08-23 07:27:34 51°17.97 2°53.634 7.5 14 16.1 101550 96
2006-08-23 07:27:40 51°17.965 2°53.641 7.8 11 16.1 101550 96
2006-08-23 07:27:44 51°17.962 2°53.646 7.2 7 16.1 101540 96
2006-08-23 07:27:50 51°17.955 2°53.655 6.2 4 16.1 101540 96
2006-08-23 07:27:54 51°17.949 2°53.66 6.8 1 16.1 101550 96
2006-08-23 07:28:00 51°17.94 2°53.669 8.2 357 16.1 101550 96
2006-08-23 07:28:04 51°17.933 2°53.675 8.3 354 16.1 101540 96
2006-08-23 07:28:10 51°17.921 2°53.684 8.9 352 16.1 101540 96
2006-08-23 07:28:14 51°17.912 2°53.689 8.9 353 16.1 101540 96
2006-08-23 07:28:20 51°17.898 2°53.695 8.7 349 16.1 101540 96
2006-08-23 07:28:23 51°17.89 2°53.698 10.4 348 16.1 101540 96
2006-08-23 07:28:29 51°17.874 2°53.702 11.1 345 16.1 101540 96
2006-08-23 07:28:34 51°17.86 2°53.701 10.8 343 16.1 101540 96
2006-08-23 07:28:40 51°17.842 2°53.698 11.8 338 16.1 101540 96
2006-08-23 07:28:44 51°17.83 2°53.693 11.9 338 16.1 101530 96
2006-08-23 07:28:50 51°17.812 2°53.684 11.8 337 16.1 101530 96
2006-08-23 07:28:54 51°17.8 2°53.675 12.5 335 16.1 101530 96
2006-08-23 07:28:59 51°17.786 2°53.663 11.9 331 16.1 101530 96
2006-08-23 07:29:05 51°17.769 2°53.646 11 332 16.1 101530 96
2006-08-23 07:29:09 51°17.758 2°53.635 12.8 285 16.1 101530 96
2006-08-23 07:29:14 51°17.744 2°53.619 11.8 334 16.1 101530 96
2006-08-23 07:29:18 51°17.732 2°53.609 12.3 333 16.1 101530 96
2006-08-23 07:29:24 51°17.714 2°53.591 12.5 332 16.1 101530 96
2006-08-23 07:29:29 51°17.699 2°53.576 12.5 330 16.1 101530 96
2006-08-23 07:29:34 51°17.684 2°53.561 11.7 333 16.1 101530 96
2006-08-23 07:29:40 51°17.666 2°53.542 12.9 329 16.1 101530 96
2006-08-23 07:29:44 51°17.654 2°53.53 12.6 329 16.1 101540 96
2006-08-23 07:29:49 51°17.639 2°53.515 12.9 330 16.1 101540 96
2006-08-23 07:29:54 51°17.624 2°53.5 12.8 331 16.1 101540 96
2006-08-23 07:30:00 51°17.606 2°53.481 12.3 331 16.1 101540 96
2006-08-23 07:30:04 51°17.594 2°53.47 12.8 330 16.1 101530 96
2006-08-23 07:30:10 51°17.576 2°53.452 12.9 331 16.1 101530 96
2006-08-23 07:30:15 51°17.56 2°53.436 12.7 332 16 101530 96
2006-08-23 07:30:20 51°17.545 2°53.42 12.7 330 16 101530 96
2006-08-23 07:30:24 51°17.534 2°53.408 11.9 330 16 101540 96
2006-08-23 07:30:30 51°17.516 2°53.388 13.1 331 16 101540 96
2006-08-23 07:30:34 51°17.505 2°53.373 11.9 328 16 101540 96
2006-08-23 07:30:39 51°17.49 2°53.356 12.4 330 16 101540 96
2006-08-23 07:30:44 51°17.476 2°53.339 12.7 328 16 101530 96
2006-08-23 07:30:49 51°17.463 2°53.32 12.6 328 16 101530 96
2006-08-23 07:30:54 51°17.449 2°53.303 12.5 330 15.9 101530 96
2006-08-23 07:31:00 51°17.432 2°53.281 12.6 302 15.9 101530 96
2006-08-23 07:31:04 51°17.421 2°53.265 11.9 331 15.9 101530 96
2006-08-23 07:31:09 51°17.407 2°53.248 11.9 283 15.9 101530 96
2006-08-23 07:31:14 51°17.393 2°53.23 12.1 329 16 101530 96
2006-08-23 07:31:20 51°17.376 2°53.208 12.1 328 16 101530 96
2006-08-23 07:31:24 51°17.365 2°53.195 12.1 330 15.9 101530 96
2006-08-23 07:31:30 51°17.347 2°53.175 11.8 327 15.9 101530 96
2006-08-23 07:31:34 51°17.335 2°53.162 12.3 331 15.9 101530 96
2006-08-23 07:31:39 51°17.321 2°53.145 12.3 331 15.9 101530 96
2006-08-23 07:31:44 51°17.306 2°53.129 12 330 15.9 101530 96
2006-08-23 07:31:49 51°17.292 2°53.111 12.1 328 15.9 101530 96
2006-08-23 07:31:54 51°17.278 2°53.094 12.6 327 16 101530 96
2006-08-23 07:32:00 51°17.261 2°53.072 12.4 327 16 101530 96
2006-08-23 07:32:05 51°17.247 2°53.055 11.3 329 16 101520 96
2006-08-23 07:32:09 51°17.236 2°53.041 12.6 286 16 101520 96
2006-08-23 07:32:14 51°17.221 2°53.024 11.7 329 16 101530 96
2006-08-23 07:32:20 51°17.204 2°53.004 12.9 329 16 101530 96
2006-08-23 07:32:24 51°17.192 2°52.991 12.2 333 16 101520 96
2006-08-23 07:32:30 51°17.174 2°52.972 12.2 331 16 101520 96
2006-08-23 07:32:33 51°17.166 2°52.962 12.1 329 16 101530 96
2006-08-23 07:32:40 51°17.145 2°52.939 12.4 331 16 101530 96
2006-08-23 07:32:44 51°17.133 2°52.927 11.7 328 16 101520 96
2006-08-23 07:32:50 51°17.115 2°52.906 12.6 329 16 101520 96
2006-08-23 07:32:54 51°17.104 2°52.893 11.7 329 16 101530 96
2006-08-23 07:33:00 51°17.087 2°52.873 12.2 327 16 101530 96
2006-08-23 07:33:04 51°17.076 2°52.858 12.7 328 15.9 101530 96
2006-08-23 07:33:10 51°17.059 2°52.837 12.2 328 15.9 101530 96
2006-08-23 07:33:14 51°17.048 2°52.823 12.4 328 15.9 101530 96
2006-08-23 07:33:20 51°17.031 2°52.801 12.7 328 15.9 101530 96
2006-08-23 07:33:24 51°17.019 2°52.788 12.1 330 15.9 101530 96
2006-08-23 07:33:30 51°17.002 2°52.767 12.9 301 15.9 101530 96
2006-08-23 07:33:34 51°16.991 2°52.752 13.2 328 15.9 101530 96
2006-08-23 07:33:39 51°16.977 2°52.734 12.4 330 15.9 101530 96
2006-08-23 07:33:45 51°16.96 2°52.714 12 330 15.9 101520 96
2006-08-23 07:33:50 51°16.947 2°52.695 13.2 328 15.9 101520 96
2006-08-23 07:33:54 51°16.936 2°52.681 12.8 328 15.9 101520 96
2006-08-23 07:33:59 51°16.922 2°52.664 12 301 15.9 101520 96
2006-08-23 07:34:04 51°16.907 2°52.647 12.4 329 15.9 101520 96
2006-08-23 07:34:10 51°16.89 2°52.626 11.9 282 15.9 101520 96
2006-08-23 07:34:14 51°16.879 2°52.612 12.3 328 15.9 101520 96
2006-08-23 07:34:20 51°16.862 2°52.591 12.6 329 15.9 101520 96
2006-08-23 07:34:24 51°16.85 2°52.577 11.9 328 15.9 101530 96
2006-08-23 07:34:30 51°16.834 2°52.556 12.3 328 15.9 101530 96
2006-08-23 07:34:33 51°16.825 2°52.546 11.7 329 15.9 101520 96
2006-08-23 07:34:40 51°16.806 2°52.52 12.3 329 15.9 101520 96
2006-08-23 07:34:44 51°16.795 2°52.506 12.2 329 15.9 101530 96
2006-08-23 07:34:49 51°16.781 2°52.488 12.9 328 15.9 101530 96
2006-08-23 07:34:55 51°16.764 2°52.467 12.6 328 15.9 101530 96
2006-08-23 07:35:00 51°16.75 2°52.449 11.8 329 15.9 101530 96
2006-08-23 07:35:04 51°16.739 2°52.436 11.9 328 15.9 101530 96
2006-08-23 07:35:10 51°16.722 2°52.415 12.3 330 15.9 101530 96
2006-08-23 07:35:14 51°16.711 2°52.401 12.4 330 15.9 101530 96
2006-08-23 07:35:20 51°16.694 2°52.38 12.1 330 15.9 101530 96
2006-08-23 07:35:24 51°16.683 2°52.366 12.7 329 15.9 101510 96
2006-08-23 07:35:30 51°16.665 2°52.346 13 330 15.9 101510 96
2006-08-23 07:35:33 51°16.657 2°52.334 12 329 15.9 101530 96
2006-08-23 07:35:40 51°16.637 2°52.311 11.7 330 15.9 101530 96
2006-08-23 07:35:44 51°16.626 2°52.296 12.4 329 15.9 101530 96
2006-08-23 07:35:50 51°16.609 2°52.276 12.1 330 15.9 101530 96
2006-08-23 07:35:54 51°16.598 2°52.262 12.1 329 15.9 101540 95
2006-08-23 07:35:59 51°16.584 2°52.245 12.7 329 15.9 101540 95
2006-08-23 07:36:04 51°16.57 2°52.227 12.4 328 15.9 101530 95
2006-08-23 07:36:10 51°16.553 2°52.206 12.5 276 15.9 101530 95
2006-08-23 07:36:14 51°16.542 2°52.192 12.5 329 15.9 101530 95
2006-08-23 07:36:19 51°16.528 2°52.174 11.9 328 15.9 101530 95
2006-08-23 07:36:24 51°16.514 2°52.157 12.4 328 15.9 101520 95
2006-08-23 07:36:30 51°16.497 2°52.135 12.2 329 15.9 101520 95
2006-08-23 07:36:34 51°16.486 2°52.122 12.3 330 15.9 101530 96
2006-08-23 07:36:40 51°16.469 2°52.101 12.3 329 15.9 101530 96
2006-08-23 07:36:43 51°16.46 2°52.091 11.6 329 15.9 101530 96
2006-08-23 07:36:49 51°16.443 2°52.07 12.2 329 15.9 101530 96
2006-08-23 07:36:54 51°16.429 2°52.053 12.1 330 15.9 101530 96
2006-08-23 07:37:00 51°16.412 2°52.031 12.1 329 15.9 101530 96
2006-08-23 07:37:04 51°16.402 2°52.017 11.7 329 15.9 101530 96
2006-08-23 07:37:09 51°16.388 2°51.999 12.7 329 15.9 101530 96
2006-08-23 07:37:14 51°16.375 2°51.98 12.3 331 15.9 101530 95
2006-08-23 07:37:20 51°16.358 2°51.959 11.6 329 15.9 101530 95
2006-08-23 07:37:24 51°16.347 2°51.943 12.2 330 15.9 101530 96
2006-08-23 07:37:30 51°16.331 2°51.922 12.2 330 15.9 101530 96
2006-08-23 07:37:34 51°16.32 2°51.907 12.7 332 15.9 101530 95
2006-08-23 07:37:40 51°16.304 2°51.885 12.5 331 15.9 101530 95
2006-08-23 07:37:44 51°16.293 2°51.871 11.9 332 15.9 101530 95
2006-08-23 07:37:50 51°16.276 2°51.85 12.1 333 15.9 101530 95
2006-08-23 07:37:54 51°16.265 2°51.836 12.6 332 15.9 101530 95
2006-08-23 07:38:00 51°16.248 2°51.816 12.6 333 15.9 101530 95
2006-08-23 07:38:04 51°16.237 2°51.802 12.3 334 15.9 101530 95
2006-08-23 07:38:10 51°16.22 2°51.781 12.3 284 15.9 101530 95
2006-08-23 07:38:14 51°16.209 2°51.767 12.4 333 15.8 101530 95
2006-08-23 07:38:20 51°16.192 2°51.747 12 329 15.8 101530 95
2006-08-23 07:38:24 51°16.181 2°51.732 12 330 15.8 101530 95
2006-08-23 07:38:30 51°16.164 2°51.711 12.1 330 15.8 101530 95
2006-08-23 07:38:34 51°16.153 2°51.696 12.2 330 15.8 101520 95
2006-08-23 07:38:40 51°16.137 2°51.674 12.1 330 15.8 101520 95
2006-08-23 07:38:44 51°16.126 2°51.66 12.2 330 15.9 101530 95
2006-08-23 07:38:50 51°16.111 2°51.636 12.1 329 15.9 101530 95
2006-08-23 07:38:54 51°16.1 2°51.622 12.2 329 15.9 101530 95
2006-08-23 07:39:00 51°16.084 2°51.599 12.2 329 15.9 101530 95
2006-08-23 07:39:03 51°16.076 2°51.588 12 327 15.9 101530 95
2006-08-23 07:39:10 51°16.058 2°51.561 12.6 328 15.9 101530 95
2006-08-23 07:39:14 51°16.047 2°51.545 12.3 332 15.9 101530 95
2006-08-23 07:39:20 51°16.032 2°51.522 12.3 331 15.9 101530 95
2006-08-23 07:39:25 51°16.018 2°51.503 12.7 330 15.9 101530 96
2006-08-23 07:39:29 51°16.008 2°51.488 12.7 333 15.9 101530 96
2006-08-23 07:39:34 51°15.995 2°51.468 12.2 331 15.9 101530 96
2006-08-23 07:39:40 51°15.978 2°51.447 12.6 334 15.9 101530 96
2006-08-23 07:39:44 51°15.968 2°51.432 12.2 332 15.9 101530 96
2006-08-23 07:39:50 51°15.95 2°51.411 11.8 331 15.9 101530 96
2006-08-23 07:39:54 51°15.939 2°51.396 11.8 330 15.9 101530 95
2006-08-23 07:40:00 51°15.923 2°51.376 12.6 332 15.9 101530 95
2006-08-23 07:40:04 51°15.911 2°51.362 12.7 330 15.9 101530 95
2006-08-23 07:40:10 51°15.894 2°51.341 12 281 15.9 101530 95
2006-08-23 07:40:14 51°15.883 2°51.326 11.6 330 15.9 101530 95
2006-08-23 07:40:20 51°15.867 2°51.305 12.5 331 15.9 101530 95
2006-08-23 07:40:24 51°15.856 2°51.29 11.9 331 16 101520 95
2006-08-23 07:40:30 51°15.841 2°51.269 10.7 332 16 101520 95
2006-08-23 07:40:34 51°15.831 2°51.256 11 330 15.9 101530 95
2006-08-23 07:40:40 51°15.817 2°51.237 11.1 330 15.9 101530 95
2006-08-23 07:40:44 51°15.809 2°51.225 10.9 332 15.9 101530 95
2006-08-23 07:40:50 51°15.795 2°51.208 10.4 333 15.9 101530 95
2006-08-23 07:40:54 51°15.787 2°51.197 10.5 332 15.9 101530 95
2006-08-23 07:41:00 51°15.775 2°51.18 10.1 330 15.9 101530 95
2006-08-23 07:41:04 51°15.767 2°51.171 9.5 331 15.9 101530 95
2006-08-23 07:41:10 51°15.756 2°51.156 10.5 331 15.9 101530 95
2006-08-23 07:41:15 51°15.747 2°51.145 10.1 332 15.9 101540 95
2006-08-23 07:41:20 51°15.738 2°51.134 9.3 332 15.9 101540 95
2006-08-23 07:41:24 51°15.732 2°51.125 9.2 331 15.9 101540 95
2006-08-23 07:41:30 51°15.722 2°51.113 8.9 331 15.9 101540 95
2006-08-23 07:41:34 51°15.716 2°51.105 8.7 331 15.9 101540 95
2006-08-23 07:41:40 51°15.707 2°51.093 8.4 332 15.9 101540 95
2006-08-23 07:41:44 51°15.702 2°51.085 8.4 330 15.9 101540 95
2006-08-23 07:41:49 51°15.695 2°51.076 8.6 331 15.9 101540 95
2006-08-23 07:41:54 51°15.687 2°51.067 8.6 330 15.9 101540 95
2006-08-23 07:41:59 51°15.681 2°51.057 8.4 330 15.9 101540 95
2006-08-23 07:42:04 51°15.675 2°51.048 8.1 329 15.9 101540 95
2006-08-23 07:42:10 51°15.667 2°51.037 8.3 278 15.9 101540 95
2006-08-23 07:42:14 51°15.663 2°51.03 8.5 325 15.9 101530 95
2006-08-23 07:42:20 51°15.657 2°51.019 7.4 327 15.9 101530 95
2006-08-23 07:42:25 51°15.652 2°51.011 7.9 329 15.9 101550 95
2006-08-23 07:42:30 51°15.648 2°51.002 7.4 324 15.9 101550 95
2006-08-23 07:42:34 51°15.645 2°50.996 7.5 321 15.9 101540 95
2006-08-23 07:42:40 51°15.64 2°50.986 8 303 15.9 101540 95
2006-08-23 07:42:44 51°15.638 2°50.98 7.9 322 16 101540 95
2006-08-23 07:42:50 51°15.633 2°50.971 7.7 306 16 101540 95
2006-08-23 07:42:54 51°15.631 2°50.965 6.5 321 15.9 101540 95
2006-08-23 07:43:00 51°15.628 2°50.956 6.9 305 15.9 101540 95
2006-08-23 07:43:04 51°15.625 2°50.95 7.1 319 15.9 101550 95
2006-08-23 07:43:10 51°15.623 2°50.942 6.9 305 15.9 101550 95
2006-08-23 07:43:13 51°15.621 2°50.938 6.3 24 16 101540 95
2006-08-23 07:43:20 51°15.619 2°50.93 6.5 307 16 101540 95
2006-08-23 07:43:24 51°15.618 2°50.925 5.6 22 16 101540 95
2006-08-23 07:43:30 51°15.616 2°50.919 5.8 301 16 101540 95
2006-08-23 07:43:33 51°15.615 2°50.916 6.5 23 16 101540 95
2006-08-23 07:43:40 51°15.614 2°50.91 6.2 303 16 101540 95
2006-08-23 07:43:43 51°15.613 2°50.907 5.8 28 16 101550 95
2006-08-23 07:43:50 51°15.612 2°50.903 5.8 301 16 101550 95
2006-08-23 07:43:54 51°15.612 2°50.9 6.6 245 16 101540 95
2006-08-23 07:44:00 51°15.61 2°50.899 5 308 16 101540 95
2006-08-23 07:44:04 51°15.609 2°50.898 5.6 247 16 101560 95
2006-08-23 07:44:10 51°15.609 2°50.897 6.3 283 16 101560 95
2006-08-23 07:44:13 51°15.608 2°50.897 5.9 253 16 101560 95
2006-08-23 07:44:20 51°15.607 2°50.896 7.2 307 16 101560 95
2006-08-23 07:44:25 51°15.606 2°50.895 6.9 251 16 101550 95
2006-08-23 07:44:30 51°15.605 2°50.895 7.5 303 16 101550 95
2006-08-23 07:44:35 51°15.604 2°50.894 8 255 16 101560 96
2006-08-23 07:44:40 51°15.603 2°50.893 8.5 309 16 101560 96
2006-08-23 07:44:45 51°15.602 2°50.892 7.5 253 16 101560 96
2006-08-23 07:44:50 51°15.601 2°50.891 7.9 304 16 101560 96
2006-08-23 07:44:55 51°15.6 2°50.89 6.4 253 16 101560 95
2006-08-23 07:45:00 51°15.599 2°50.889 7.2 305 16 101560 95
2006-08-23 07:45:05 51°15.598 2°50.888 6.8 254 16 101560 95
2006-08-23 07:45:10 51°15.597 2°50.887 7.2 285 16 101560 95
2006-08-23 07:45:15 51°15.596 2°50.886 6.8 254 16 101560 95
2006-08-23 07:45:20 51°15.595 2°50.885 7.5 305 16 101560 95
2006-08-23 07:45:24 51°15.595 2°50.884 7.6 255 16.1 101570 95
2006-08-23 07:45:30 51°15.594 2°50.881 6.1 257 16.1 101570 95
2006-08-23 07:45:34 51°15.594 2°50.879 6.9 257 16 101550 95
2006-08-23 07:45:40 51°15.595 2°50.875 5.6 302 16 101550 95
2006-08-23 07:45:43 51°15.595 2°50.873 6.8 257 16.1 101560 95
2006-08-23 07:45:49 51°15.597 2°50.867 5.6 308 16.1 101560 95
2006-08-23 07:45:54 51°15.599 2°50.862 5.2 262 16.1 101560 95
2006-08-23 07:46:00 51°15.603 2°50.856 4 307 16.1 101560 95
2006-08-23 07:46:05 51°15.606 2°50.85 4 263 16.1 101560 96
2006-08-23 07:46:09 51°15.61 2°50.846 5 307 16.1 101560 96
2006-08-23 07:46:14 51°15.616 2°50.841 3.8 265 16.1 101550 96
2006-08-23 07:46:19 51°15.622 2°50.838 3.7 308 16.1 101550 96
2006-08-23 07:46:24 51°15.628 2°50.835 4.8 270 16.1 101550 96
2006-08-23 07:46:30 51°15.637 2°50.833 4.5 55 16.1 101550 96
2006-08-23 07:46:34 51°15.642 2°50.833 3.4 25 16.2 101560 96
2006-08-23 07:46:40 51°15.652 2°50.835 3 53 16.2 101560 96
2006-08-23 07:46:45 51°15.659 2°50.839 2.8 23 16.2 101560 96
2006-08-23 07:46:50 51°15.667 2°50.844 1.6 50 16.2 101560 96
2006-08-23 07:46:54 51°15.673 2°50.85 2.6 37 16.1 101560 95
2006-08-23 07:47:00 51°15.681 2°50.861 2.1 353 16.1 101560 95
2006-08-23 07:47:04 51°15.686 2°50.869 2.9 29 16.1 101560 95
2006-08-23 07:47:09 51°15.692 2°50.88 2.1 18 16.1 101560 95
2006-08-23 07:47:14 51°15.697 2°50.892 3 35 16.1 101560 95
2006-08-23 07:47:20 51°15.703 2°50.909 3.5 33 16.1 101560 95
2006-08-23 07:47:25 51°15.708 2°50.923 3.7 34 16.1 101550 95
2006-08-23 07:47:29 51°15.711 2°50.934 3.3 32 16.1 101550 95
2006-08-23 07:47:34 51°15.716 2°50.949 2.9 32 16.2 101550 96
2006-08-23 07:47:40 51°15.722 2°50.967 3.2 30 16.2 101550 96
2006-08-23 07:47:44 51°15.726 2°50.979 3.1 27 16.1 101560 95
2006-08-23 07:47:50 51°15.732 2°50.998 3.9 33 16.1 101560 95
2006-08-23 07:47:54 51°15.736 2°51.01 3.8 34 16.1 101550 95
2006-08-23 07:48:00 51°15.741 2°51.029 3.5 29 16.1 101550 95
2006-08-23 07:48:04 51°15.746 2°51.042 2.6 33 16.1 101560 95
2006-08-23 07:48:10 51°15.751 2°51.062 3.5 25 16.1 101560 95
2006-08-23 07:48:14 51°15.754 2°51.075 3.8 35 16.1 101560 95
2006-08-23 07:48:20 51°15.759 2°51.095 4.3 25 16.1 101560 95
2006-08-23 07:48:24 51°15.763 2°51.108 4 31 16.1 101550 95
2006-08-23 07:48:29 51°15.767 2°51.125 3.7 32 16.1 101550 95
2006-08-23 07:48:34 51°15.772 2°51.14 3.7 33 16.1 101560 95
2006-08-23 07:48:40 51°15.777 2°51.158 3.2 38 16.1 101560 95
2006-08-23 07:48:45 51°15.781 2°51.172 3.6 35 16.1 101560 95
2006-08-23 07:48:49 51°15.784 2°51.182 2.9 37 16.1 101560 95
2006-08-23 07:48:54 51°15.789 2°51.195 3.4 25 16.1 101550 95
2006-08-23 07:49:00 51°15.794 2°51.21 3.3 40 16.1 101550 95
2006-08-23 07:49:04 51°15.797 2°51.22 4.1 37 16.1 101550 95
2006-08-23 07:49:10 51°15.8 2°51.234 3.6 35 16.1 101550 95
2006-08-23 07:49:14 51°15.802 2°51.243 4.3 30 16.1 101560 95
2006-08-23 07:49:20 51°15.805 2°51.255 4.5 30 16.1 101560 95
2006-08-23 07:49:24 51°15.806 2°51.263 4.9 32 16.1 101550 95
2006-08-23 07:49:30 51°15.807 2°51.274 5.2 35 16.1 101550 95
2006-08-23 07:49:34 51°15.807 2°51.281 4.9 31 16.1 101550 95
2006-08-23 07:49:40 51°15.808 2°51.29 5.1 32 16.1 101550 95
2006-08-23 07:49:44 51°15.808 2°51.296 5.5 28 16.1 101560 95
2006-08-23 07:49:50 51°15.807 2°51.302 5.3 37 16.1 101560 95
2006-08-23 07:49:54 51°15.807 2°51.306 5.9 33 16.1 101550 95
2006-08-23 07:50:00 51°15.806 2°51.309 6 36 16.1 101550 95
2006-08-23 07:50:04 51°15.806 2°51.311 6.9 37 16.1 101560 95
2006-08-23 07:50:10 51°15.805 2°51.312 7.2 38 16.1 101560 95
2006-08-23 07:50:15 51°15.805 2°51.312 7.4 37 16.1 101550 95
2006-08-23 07:50:20 51°15.804 2°51.313 7 40 16.1 101550 95
2006-08-23 07:50:24 51°15.804 2°51.313 7.4 38 16.1 101550 95
2006-08-23 07:50:30 51°15.803 2°51.314 7.3 38 16.1 101550 95
2006-08-23 07:50:35 51°15.803 2°51.314 7.3 39 16.1 101550 95
2006-08-23 07:50:40 51°15.802 2°51.315 6.9 37 16.1 101550 95
2006-08-23 07:50:43 51°15.801 2°51.315 6.8 38 16.1 101550 95
2006-08-23 07:50:49 51°15.801 2°51.316 6.5 36 16.1 101550 95
2006-08-23 07:50:54 51°15.8 2°51.317 6.2 39 16.1 101550 95
2006-08-23 07:51:00 51°15.8 2°51.317 6.7 37 16.1 101550 95
2006-08-23 07:51:04 51°15.799 2°51.318 6.5 39 16.1 101550 95
2006-08-23 07:51:10 51°15.799 2°51.319 7.6 36 16.1 101550 95
2006-08-23 07:51:14 51°15.798 2°51.319 7.4 37 16.1 101540 95
2006-08-23 07:51:20 51°15.797 2°51.321 6.9 34 16.1 101540 95
2006-08-23 07:51:25 51°15.797 2°51.323 6 35 16.1 101540 95
2006-08-23 07:51:29 51°15.796 2°51.326 6.9 34 16.1 101540 95
2006-08-23 07:51:34 51°15.796 2°51.329 6.5 38 16.1 101540 95
2006-08-23 07:51:40 51°15.795 2°51.335 6.2 39 16.1 101540 95
2006-08-23 07:51:44 51°15.795 2°51.339 5.6 41 16.1 101550 95
2006-08-23 07:51:50 51°15.795 2°51.347 5 40 16.1 101550 95
2006-08-23 07:51:54 51°15.795 2°51.353 4 39 16.1 101550 95
2006-08-23 07:52:00 51°15.797 2°51.364 3.3 36 16.1 101550 95
2006-08-23 07:52:04 51°15.798 2°51.372 3.1 41 16.1 101550 95
2006-08-23 07:52:10 51°15.801 2°51.385 2.8 36 16.1 101550 95
2006-08-23 07:52:14 51°15.804 2°51.394 1.6 34 16 101560 95
2006-08-23 07:52:20 51°15.81 2°51.408 2.2 51 16 101560 95
2006-08-23 07:52:24 51°15.814 2°51.417 2.1 28 16.1 101550 95
2006-08-23 07:52:30 51°15.822 2°51.431 2.2 39 16.1 101550 95
2006-08-23 07:52:33 51°15.825 2°51.438 2.4 42 16.1 101550 95
2006-08-23 07:52:40 51°15.835 2°51.456 1.7 36 16.1 101550 95
2006-08-23 07:52:44 51°15.841 2°51.467 1.3 39 16.1 101560 95
2006-08-23 07:52:50 51°15.85 2°51.484 0.8 44 16.1 101560 95
2006-08-23 07:52:54 51°15.856 2°51.496 1 26 16.1 101560 95
2006-08-23 07:53:00 51°15.865 2°51.514 1 34 16.1 101560 95
2006-08-23 07:53:04 51°15.872 2°51.526 1.3 28 16.1 101560 95
2006-08-23 07:53:10 51°15.882 2°51.545 1.4 25 16.1 101560 95
2006-08-23 07:53:14 51°15.888 2°51.557 1.4 31 16.1 101560 95
2006-08-23 07:53:20 51°15.898 2°51.577 1.3 34 16.1 101560 95
2006-08-23 07:53:24 51°15.905 2°51.59 1.5 31 16.1 101560 95
2006-08-23 07:53:29 51°15.913 2°51.606 1.4 27 16.1 101560 95
2006-08-23 07:53:34 51°15.921 2°51.623 1.4 15 16.1 101550 95
2006-08-23 07:53:40 51°15.931 2°51.643 1.2 23 16.1 101550 95
2006-08-23 07:53:44 51°15.938 2°51.656 1.4 26 16.1 101550 95
2006-08-23 07:53:50 51°15.948 2°51.676 1.6 28 16.1 101550 95
2006-08-23 07:53:54 51°15.955 2°51.69 1.5 29 16.1 101550 95
2006-08-23 07:53:59 51°15.963 2°51.706 1.2 31 16.1 101550 95
2006-08-23 07:54:05 51°15.973 2°51.725 1.5 30 16.1 101550 95
2006-08-23 07:54:10 51°15.982 2°51.74 1.6 59 16.1 101550 95
2006-08-23 07:54:14 51°15.988 2°51.752 1.9 22 16.1 101550 95
2006-08-23 07:54:20 51°15.997 2°51.768 1.6 42 16.1 101550 95
2006-08-23 07:54:24 51°16.004 2°51.777 1.8 44 16.2 101550 95
2006-08-23 07:54:30 51°16.013 2°51.792 1.8 36 16.2 101550 95
2006-08-23 07:54:34 51°16.019 2°51.8 2.1 19 16.2 101550 95